X  Close Metar Aviation Weather Data     KNPA Naval Air Station Pensacola Forrest Sherman Field
Temperature
°F Temperature
61°F Dewpoint
73% Humidity



Wind
13 MPH
21 KM/H
6 M/S
11 KTS



60°
ENE
Current Conditions

Mostly Scattered Clouds Mostly Scattered Clouds
Pressure 1017.62 (hPa) - 30.05 (inHg)
Visibility 10 (mile) - 16.1 (km)
Airport
Airport-code KNPA

Location: Naval Air Station Pensacola Forrest Sherman Field
Distance: 1 (mi)

Metar:
KNPA 040556Z AUTO 06011KT 10SM SCT055 21/16 A3005 RMK AO2 SLP176 T02060156 10211 20167 402610144 50002

Time: 04-10-2022 00:56 CDT